Time;durP1;ratioP1;P1;durP2;ratioP2;P2;SDS_P1;SDS_P2;PMS_P1;PMS_P2;Temp;Humidity;BMP_temperature;BMP_pressure;BME280_temperature;BME280_humidity;BME280_pressure;Samples;Min_cycle;Max_cycle;Signal;HPM_P1;HPM_P2
2023/10/29 00:02:28;;;;;;;3.05;1.65;;;19.60;93.50;;;;;;10542289;28;20115;-30
2023/10/29 00:07:30;;;;;;;3.42;1.95;;;19.00;95.60;;;;;;10549735;27;20109;-39
2023/10/29 00:12:33;;;;;;;2.60;1.45;;;19.20;95.50;;;;;;10545143;28;20055;-44
2023/10/29 00:17:35;;;;;;;4.18;1.40;;;19.30;94.80;;;;;;10546068;28;20077;-38
2023/10/29 00:22:37;;;;;;;4.60;1.90;;;18.70;97.70;;;;;;10542121;28;20109;-35
2023/10/29 00:27:40;;;;;;;2.23;1.20;;;18.60;98.00;;;;;;10543933;28;20478;-36
2023/10/29 00:32:42;;;;;;;5.13;1.33;;;17.90;99.90;;;;;;10542379;28;20477;-30
2023/10/29 00:37:44;;;;;;;4.18;1.48;;;19.10;96.50;;;;;;10547316;28;20140;-42
2023/10/29 00:42:47;;;;;;;2.33;1.27;;;18.90;97.20;;;;;;10543277;28;20051;-35
2023/10/29 00:47:49;;;;;;;2.10;1.00;;;18.90;96.80;;;;;;10542218;28;20064;-35
2023/10/29 00:52:51;;;;;;;3.47;1.25;;;18.30;98.60;;;;;;10546118;28;20054;-33
2023/10/29 00:57:55;;;;;;;4.65;1.42;;;17.40;99.90;;;;;;10541088;28;20872;-31
2023/10/29 01:02:57;;;;;;;1.92;0.90;;;18.60;98.80;;;;;;10542762;28;20059;-36
2023/10/29 01:07:59;;;;;;;3.60;1.65;;;18.60;97.90;;;;;;10541907;28;20069;-41
2023/10/29 01:13:02;;;;;;;6.47;1.37;;;18.70;98.00;;;;;;10543433;28;20043;-35
2023/10/29 01:18:05;;;;;;;2.10;0.98;;;19.40;95.10;;;;;;10535219;28;20535;-35
2023/10/29 01:23:07;;;;;;;2.30;1.25;;;19.20;95.80;;;;;;10543153;28;20059;-36
2023/10/29 01:28:10;;;;;;;4.47;0.73;;;19.10;96.00;;;;;;10548749;28;20142;-32
2023/10/29 01:33:12;;;;;;;1.52;0.70;;;19.50;94.50;;;;;;10545799;28;20081;-33
2023/10/29 01:38:14;;;;;;;0.93;0.77;;;18.30;98.40;;;;;;10544727;28;20052;-37
2023/10/29 01:43:17;;;;;;;1.70;0.87;;;18.60;97.70;;;;;;10545801;28;20047;-37
2023/10/29 01:48:19;;;;;;;2.30;0.88;;;19.00;96.20;;;;;;10540732;28;21071;-50
2023/10/29 01:53:21;;;;;;;1.00;0.75;;;18.20;98.30;;;;;;10533072;28;20044;-32
2023/10/29 01:58:24;;;;;;;2.92;1.02;;;16.80;99.90;;;;;;10544548;28;20051;-29
2023/10/29 02:03:27;;;;;;;2.97;0.80;;;17.50;99.70;;;;;;10537502;28;20116;-35
2023/10/29 02:08:29;;;;;;;1.10;0.77;;;18.60;95.80;;;;;;10538858;28;20131;-33
2023/10/29 02:13:32;;;;;;;1.98;1.13;;;18.80;95.90;;;;;;10541557;28;20076;-40
2023/10/29 02:18:34;;;;;;;2.85;0.70;;;18.80;95.60;;;;;;10539709;28;20541;-44
2023/10/29 02:23:37;;;;;;;4.15;0.90;;;18.60;94.40;;;;;;10543068;28;20139;-34
2023/10/29 02:28:39;;;;;;;2.35;0.80;;;17.90;95.70;;;;;;10533735;28;20046;-38
2023/10/29 02:33:43;;;;;;;1.20;0.60;;;17.40;95.30;;;;;;10544436;28;20046;-38
2023/10/29 02:38:46;;;;;;;1.33;0.70;;;16.60;99.90;;;;;;10538219;28;20389;-35
2023/10/29 02:43:48;;;;;;;1.88;0.43;;;16.20;99.90;;;;;;10532941;28;20046;-38
2023/10/29 02:48:50;;;;;;;2.63;0.63;;;17.10;99.40;;;;;;10537529;28;20082;-42
2023/10/29 02:53:53;;;;;;;1.17;0.70;;;17.20;99.90;;;;;;10542827;28;20055;-38
2023/10/29 02:58:55;;;;;;;3.33;0.70;;;18.00;96.80;;;;;;10536004;28;20204;-40
2023/10/29 03:03:57;;;;;;;4.40;0.87;;;17.70;97.80;;;;;;10540674;28;20051;-36
2023/10/29 03:09:00;;;;;;;3.05;0.52;;;17.50;98.50;;;;;;10546217;28;20043;-32
2023/10/29 03:14:01;;;;;;;0.98;0.50;;;17.20;99.90;;;;;;10535630;28;20556;-38
2023/10/29 03:19:04;;;;;;;1.33;0.75;;;16.90;99.90;;;;;;10540386;28;20043;-35
2023/10/29 03:24:08;;;;;;;1.88;0.43;;;17.70;99.60;;;;;;10541201;28;20139;-37
2023/10/29 03:29:10;;;;;;;1.50;0.40;;;17.40;99.10;;;;;;10540834;28;20048;-32
2023/10/29 03:34:12;;;;;;;1.43;0.70;;;17.40;99.90;;;;;;10535265;28;20384;-42
2023/10/29 03:39:16;;;;;;;2.13;0.40;;;17.20;99.90;;;;;;10537166;28;20071;-38
2023/10/29 03:44:17;;;;;;;3.33;0.63;;;17.20;99.90;;;;;;10540130;28;20040;-35
2023/10/29 03:49:19;;;;;;;2.27;0.80;;;16.00;99.90;;;;;;10537924;28;20476;-37
2023/10/29 03:54:23;;;;;;;7.17;0.60;;;15.30;99.90;;;;;;10530457;28;20140;-45
2023/10/29 04:15:32;;;;;;;6.78;0.70;;;13.70;99.90;;;;;;10512427;27;20162;-39
2023/10/29 04:20:33;;;;;;;4.90;0.57;;;13.80;99.90;;;;;;10532768;28;20221;-35
2023/10/29 04:25:35;;;;;;;3.22;1.05;;;14.40;99.90;;;;;;10532632;28;20040;-34
2023/10/29 04:30:38;;;;;;;1.55;0.52;;;14.80;99.90;;;;;;10532309;28;20040;-47
2023/10/29 04:35:40;;;;;;;4.38;1.20;;;15.70;99.90;;;;;;10527271;28;20044;-31
2023/10/29 04:40:42;;;;;;;3.53;0.63;;;14.90;99.90;;;;;;10535189;28;20083;-36
2023/10/29 04:45:45;;;;;;;3.33;0.75;;;15.10;99.90;;;;;;10535347;28;20136;-38
2023/10/29 04:50:47;;;;;;;6.63;0.85;;;14.40;99.90;;;;;;10532134;28;20059;-36
2023/10/29 04:55:49;;;;;;;2.53;0.70;;;14.90;99.90;;;;;;10531590;28;20154;-44
2023/10/29 05:00:52;;;;;;;9.07;0.90;;;14.20;99.90;;;;;;10529454;28;20041;-37
2023/10/29 05:05:55;;;;;;;3.70;1.45;;;14.80;99.90;;;;;;10525424;28;20036;-44
2023/10/29 05:10:57;;;;;;;5.50;0.70;;;14.50;99.90;;;;;;10535990;28;20071;-34
2023/10/29 05:16:01;;;;;;;8.98;1.50;;;14.20;99.90;;;;;;10577378;28;20071;-35
2023/10/29 05:21:03;;;;;;;7.18;1.05;;;13.50;99.90;;;;;;10574730;28;20483;-34
2023/10/29 05:26:04;;;;;;;6.87;1.13;;;14.20;99.90;;;;;;10550781;28;20185;-34
2023/10/29 05:31:08;;;;;;;6.15;1.23;;;14.40;99.90;;;;;;10542624;28;20066;-31
2023/10/29 05:36:10;;;;;;;7.70;1.30;;;14.80;99.90;;;;;;10545294;28;20134;-39
2023/10/29 05:41:13;;;;;;;;;;;14.20;99.90;;;;;;10545115;28;20050;-40
2023/10/29 05:46:17;;;;;;;4.80;0.90;;;14.50;99.90;;;;;;10537374;28;19928;-31
2023/10/29 05:51:19;;;;;;;7.82;1.35;;;14.60;99.90;;;;;;10544105;28;20069;-41
2023/10/29 05:56:21;;;;;;;5.50;0.80;;;14.30;99.90;;;;;;10553564;28;20039;-33
2023/10/29 06:01:25;;;;;;;5.23;0.83;;;14.50;99.90;;;;;;10544938;28;20136;-32
2023/10/29 06:06:26;;;;;;;7.20;2.08;;;13.60;99.90;;;;;;10532689;28;20040;-37
2023/10/29 06:11:28;;;;;;;6.55;1.13;;;14.20;99.90;;;;;;10543857;28;20051;-33
2023/10/29 06:16:31;;;;;;;7.63;1.25;;;14.30;99.90;;;;;;10533601;28;20059;-35
2023/10/29 06:21:34;;;;;;;7.50;1.30;;;14.50;99.90;;;;;;10544408;28;20446;-39
2023/10/29 06:26:36;;;;;;;9.02;1.23;;;13.90;99.90;;;;;;10534123;28;20097;-30
2023/10/29 06:31:39;;;;;;;7.63;1.30;;;13.90;99.90;;;;;;10541409;28;20142;-35
2023/10/29 06:36:41;;;;;;;7.63;0.80;;;14.10;99.90;;;;;;10543923;28;20090;-42
2023/10/29 06:41:43;;;;;;;6.32;1.00;;;14.40;99.90;;;;;;10530588;28;20480;-30
2023/10/29 06:46:46;;;;;;;15.00;1.43;;;15.70;99.90;;;;;;10536769;28;20047;-36
2023/10/29 06:51:48;;;;;;;8.27;1.02;;;15.20;99.90;;;;;;10530343;28;20084;-33
2023/10/29 06:56:50;;;;;;;4.87;0.70;;;14.70;99.90;;;;;;10542936;28;20051;-32
2023/10/29 07:01:55;;;;;;;4.55;0.80;;;15.80;99.90;;;;;;10536079;28;20144;-34
2023/10/29 07:06:57;;;;;;;10.18;0.98;;;14.80;99.90;;;;;;10537227;28;20044;-39
2023/10/29 07:11:59;;;;;;;3.05;1.17;;;14.50;99.90;;;;;;10529841;28;20107;-31
2023/10/29 07:17:02;;;;;;;2.42;1.00;;;15.70;99.90;;;;;;10534487;28;20085;-32
2023/10/29 07:22:04;;;;;;;2.70;0.95;;;14.60;99.90;;;;;;10535806;28;20123;-43
2023/10/29 07:27:06;;;;;;;1.85;0.73;;;14.50;99.90;;;;;;10525699;28;20761;-35
2023/10/29 07:32:09;;;;;;;8.02;1.10;;;15.10;99.90;;;;;;10534985;28;20035;-37
2023/10/29 07:37:12;;;;;;;3.78;0.82;;;15.40;99.90;;;;;;10536671;28;20067;-35
2023/10/29 07:42:14;;;;;;;6.68;0.95;;;15.00;99.90;;;;;;10531277;28;20043;-39
2023/10/29 07:47:17;;;;;;;4.47;0.88;;;15.10;99.90;;;;;;10522528;28;20040;-37
2023/10/29 07:52:18;;;;;;;9.05;1.48;;;15.20;99.90;;;;;;10532479;28;20097;-34
2023/10/29 07:57:20;;;;;;;2.72;0.80;;;15.10;99.90;;;;;;10519903;28;20078;-33
2023/10/29 08:02:24;;;;;;;4.78;0.77;;;15.60;99.90;;;;;;10532884;28;20089;-43
2023/10/29 08:07:28;;;;;;;4.80;1.20;;;15.70;99.90;;;;;;10538518;28;20039;-35
2023/10/29 08:12:30;;;;;;;9.57;0.95;;;16.10;99.90;;;;;;10534459;28;20070;-37
2023/10/29 08:17:33;;;;;;;1.80;0.50;;;16.30;99.90;;;;;;10532070;28;20082;-34
2023/10/29 08:22:35;;;;;;;5.88;0.73;;;15.80;99.90;;;;;;10533077;28;20396;-39
2023/10/29 08:27:37;;;;;;;4.85;1.17;;;15.90;99.90;;;;;;10532732;28;20075;-31
2023/10/29 08:32:40;;;;;;;4.50;1.25;;;14.50;99.90;;;;;;10528848;28;20048;-30
2023/10/29 08:37:41;;;;;;;9.88;0.98;;;14.40;99.90;;;;;;10529812;28;20052;-27
2023/10/29 08:42:44;;;;;;;5.50;0.80;;;14.40;99.90;;;;;;10535074;28;20051;-39
2023/10/29 08:47:47;;;;;;;6.90;1.17;;;13.90;99.90;;;;;;10525731;28;20052;-47
2023/10/29 08:52:49;;;;;;;5.32;1.05;;;15.30;99.90;;;;;;10541176;28;20131;-32
2023/10/29 08:57:51;;;;;;;3.10;0.77;;;15.10;99.90;;;;;;10538205;28;20039;-35
2023/10/29 09:02:55;;;;;;;3.00;0.70;;;14.70;99.90;;;;;;10538851;28;20062;-37
2023/10/29 09:07:56;;;;;;;4.50;1.63;;;14.80;99.90;;;;;;10547612;28;20088;-31
2023/10/29 09:12:58;;;;;;;3.05;0.80;;;15.40;99.90;;;;;;10548224;28;20051;-34
2023/10/29 09:18:01;;;;;;;5.25;1.02;;;15.30;99.90;;;;;;10541032;28;20488;-35
2023/10/29 09:23:04;;;;;;;7.85;1.00;;;15.40;99.90;;;;;;10539934;28;20123;-33
2023/10/29 09:28:07;;;;;;;7.03;1.02;;;15.50;99.90;;;;;;10539844;28;20547;-32
2023/10/29 09:33:12;;;;;;;3.67;1.00;;;15.20;99.90;;;;;;10541784;28;20480;-32
2023/10/29 09:38:15;;;;;;;5.05;1.17;;;15.80;99.90;;;;;;10535038;28;20412;-30
2023/10/29 09:43:21;;;;;;;8.57;1.02;;;16.00;99.90;;;;;;10537297;28;20054;-37
2023/10/29 09:48:26;;;;;;;7.57;1.20;;;16.20;99.90;;;;;;10539283;28;20048;-37
2023/10/29 09:53:30;;;;;;;9.15;0.85;;;16.70;99.90;;;;;;10536821;28;20136;-32
2023/10/29 09:58:32;;;;;;;5.25;0.98;;;16.10;99.90;;;;;;10545225;28;20071;-44
2023/10/29 10:03:35;;;;;;;5.25;1.17;;;15.30;99.90;;;;;;10541231;28;20065;-34
2023/10/29 10:08:37;;;;;;;6.68;1.98;;;15.50;99.90;;;;;;10540388;28;20051;-36
2023/10/29 10:13:41;;;;;;;9.17;1.27;;;16.80;99.90;;;;;;10530363;28;20120;-35
2023/10/29 10:18:55;;;;;;;2.72;0.60;;;15.30;99.90;;;;;;10539909;28;20051;-36
2023/10/29 10:23:57;;;;;;;5.43;1.17;;;17.40;99.90;;;;;;10534844;28;20821;-31
2023/10/29 10:29:02;;;;;;;10.98;1.73;;;16.90;99.90;;;;;;10533063;28;20076;-43
2023/10/29 10:34:11;;;;;;;10.55;1.88;;;16.10;99.90;;;;;;10534407;28;20052;-50
2023/10/29 10:39:13;;;;;;;12.02;1.63;;;15.20;99.90;;;;;;10529878;28;20454;-35
2023/10/29 10:44:16;;;;;;;11.77;1.33;;;15.80;99.90;;;;;;10530304;28;20526;-35
2023/10/29 10:49:21;;;;;;;12.00;1.50;;;16.50;99.90;;;;;;10528229;28;20129;-40
2023/10/29 10:54:24;;;;;;;11.60;1.85;;;17.60;97.80;;;;;;10535632;28;20220;-39
2023/10/29 10:59:26;;;;;;;9.52;1.75;;;17.60;99.50;;;;;;10527579;28;20063;-43
2023/10/29 11:04:31;;;;;;;11.43;3.47;;;16.30;99.90;;;;;;10531312;28;20166;-35
2023/10/29 11:09:33;;;;;;;13.55;2.20;;;16.50;99.90;;;;;;10538240;28;20091;-39
2023/10/29 11:14:35;;;;;;;11.00;1.95;;;17.00;99.70;;;;;;10537808;28;20072;-34
2023/10/29 11:19:46;;;;;;;11.30;1.70;;;17.20;97.60;;;;;;10537360;28;20101;-32
2023/10/29 11:25:28;;;;;;;14.20;2.67;;;17.00;99.90;;;;;;10539559;28;20052;-36
2023/10/29 11:30:30;;;;;;;5.50;2.08;;;17.80;99.70;;;;;;10492826;28;20058;-39
2023/10/29 11:35:34;;;;;;;12.40;3.23;;;19.00;95.40;;;;;;10536331;28;20047;-33
2023/10/29 11:40:37;;;;;;;9.40;3.47;;;18.40;95.90;;;;;;10535440;28;20118;-43
2023/10/29 11:45:39;;;;;;;13.65;2.35;;;18.10;99.00;;;;;;10530370;28;20097;-31
2023/10/29 11:51:03;;;;;;;15.00;2.55;;;18.50;96.60;;;;;;10538511;28;20040;-31
2023/10/29 11:56:09;;;;;;;9.23;2.00;;;16.80;98.10;;;;;;10532406;28;20104;-43
2023/10/29 12:01:18;;;;;;;5.97;2.88;;;17.40;98.60;;;;;;10528201;28;20060;-33
2023/10/29 12:06:21;;;;;;;10.57;3.30;;;17.60;99.90;;;;;;10524187;28;20051;-31
2023/10/29 12:11:27;;;;;;;9.10;2.75;;;17.60;99.90;;;;;;10533607;28;21280;-36
2023/10/29 12:16:29;;;;;;;6.22;2.95;;;18.70;96.50;;;;;;10533149;28;20805;-36
2023/10/29 12:21:33;;;;;;;12.90;2.05;;;18.20;98.60;;;;;;10532987;28;20136;-36
2023/10/29 12:26:34;;;;;;;8.05;2.85;;;18.30;95.20;;;;;;10532334;28;20059;-33
2023/10/29 12:31:36;;;;;;;9.90;2.25;;;18.90;95.60;;;;;;10539251;28;20036;-46
2023/10/29 12:36:40;;;;;;;7.82;2.08;;;19.20;92.20;;;;;;10544638;28;20056;-36
2023/10/29 12:41:41;;;;;;;7.38;2.58;;;19.20;94.90;;;;;;10535554;28;20217;-38
2023/10/29 12:46:49;;;;;;;7.35;2.22;;;19.10;95.40;;;;;;10527247;28;20051;-33
2023/10/29 12:51:54;;;;;;;10.90;2.35;;;19.80;91.80;;;;;;10547146;28;20032;-38
2023/10/29 12:56:57;;;;;;;8.27;2.22;;;19.00;92.70;;;;;;10544033;28;20491;-40
2023/10/29 13:02:01;;;;;;;11.45;2.50;;;18.70;92.50;;;;;;10543602;28;20054;-40
2023/10/29 13:07:07;;;;;;;11.88;2.72;;;19.40;92.80;;;;;;10535847;28;20112;-37
2023/10/29 13:12:10;;;;;;;9.05;2.38;;;19.60;90.50;;;;;;10543655;28;20036;-40
2023/10/29 13:17:14;;;;;;;10.82;2.03;;;19.90;91.20;;;;;;10546031;28;20855;-35
2023/10/29 13:22:17;;;;;;;5.03;1.60;;;19.70;91.80;;;;;;10544346;28;20697;-33
2023/10/29 13:27:19;;;;;;;6.10;1.90;;;19.20;94.10;;;;;;10544937;28;20055;-32
2023/10/29 13:32:21;;;;;;;6.05;1.58;;;19.40;93.30;;;;;;10545257;28;20043;-36
2023/10/29 13:37:26;;;;;;;12.57;1.80;;;19.30;94.30;;;;;;10541870;28;20050;-42
2023/10/29 13:42:28;;;;;;;14.63;1.90;;;19.30;94.20;;;;;;10541973;28;20822;-36
2023/10/29 13:47:30;;;;;;;9.95;1.90;;;19.00;95.70;;;;;;10541973;28;20479;-39
2023/10/29 13:52:33;;;;;;;9.60;1.60;;;18.90;96.10;;;;;;10536792;28;20419;-35
2023/10/29 13:57:35;;;;;;;8.00;2.20;;;19.50;93.90;;;;;;10538895;28;20588;-37
2023/10/29 14:02:37;;;;;;;;;;;19.70;93.60;;;;;;10543637;28;20766;-50
2023/10/29 14:07:40;;;;;;;6.10;1.67;;;20.10;92.70;;;;;;10541171;28;19920;-51
2023/10/29 14:12:44;;;;;;;5.88;1.45;;;20.50;91.60;;;;;;10531987;28;20120;-51
2023/10/29 14:17:46;;;;;;;9.18;1.20;;;20.80;90.70;;;;;;10532392;28;20237;-36
2023/10/29 14:22:49;;;;;;;4.78;1.02;;;20.40;91.30;;;;;;10531602;28;20048;-35
2023/10/29 14:27:51;;;;;;;4.20;1.50;;;20.30;91.00;;;;;;10544226;28;20035;-35
2023/10/29 14:32:53;;;;;;;2.55;1.27;;;19.90;92.60;;;;;;10526380;28;20048;-34
2023/10/29 14:37:57;;;;;;;6.40;1.17;;;20.30;92.80;;;;;;10533887;28;20480;-44
2023/10/29 14:42:58;;;;;;;10.07;1.00;;;20.40;92.50;;;;;;10533499;28;20105;-36
2023/10/29 14:48:01;;;;;;;6.53;1.17;;;20.70;91.40;;;;;;10537097;28;20062;-43
2023/10/29 14:53:04;;;;;;;4.53;1.33;;;20.20;92.50;;;;;;10539512;28;20056;-32
2023/10/29 14:58:06;;;;;;;4.03;1.00;;;21.30;90.60;;;;;;10538446;28;20590;-31
2023/10/29 15:03:08;;;;;;;5.45;1.25;;;21.50;90.30;;;;;;10539367;28;20060;-37
2023/10/29 15:08:11;;;;;;;7.63;1.30;;;21.40;90.10;;;;;;10541431;28;20040;-40
2023/10/29 15:13:13;;;;;;;5.75;1.42;;;21.50;89.30;;;;;;10537035;28;20237;-33
2023/10/29 15:18:14;;;;;;;4.22;1.20;;;20.00;92.30;;;;;;10531584;28;20047;-31
2023/10/29 15:23:18;;;;;;;7.50;1.02;;;19.80;93.20;;;;;;10535855;28;20039;-33
2023/10/29 15:28:20;;;;;;;2.72;1.08;;;20.30;92.50;;;;;;10533886;28;20058;-35
2023/10/29 15:33:22;;;;;;;;;;;20.90;90.70;;;;;;10539065;28;20541;-36
2023/10/29 15:38:25;;;;;;;3.15;0.95;;;20.60;91.30;;;;;;10539383;28;20022;-36
2023/10/29 15:43:28;;;;;;;5.93;1.42;;;20.30;91.40;;;;;;10528044;28;20040;-35
2023/10/29 15:48:31;;;;;;;4.35;1.10;;;19.50;94.80;;;;;;10532459;28;20047;-37
2023/10/29 15:53:34;;;;;;;2.95;0.60;;;19.50;94.10;;;;;;10532636;28;20075;-36
2023/10/29 15:58:36;;;;;;;3.38;1.00;;;19.30;94.30;;;;;;10537603;28;20036;-37
2023/10/29 16:03:38;;;;;;;3.40;0.80;;;20.20;92.70;;;;;;10538788;28;20404;-39
2023/10/29 16:08:41;;;;;;;2.78;1.13;;;19.70;93.70;;;;;;10519728;28;20085;-38
2023/10/29 16:13:43;;;;;;;2.72;1.27;;;17.70;99.90;;;;;;10535516;28;20052;-51
2023/10/29 16:18:45;;;;;;;2.57;0.90;;;17.50;99.90;;;;;;10536318;28;20103;-43
2023/10/29 16:23:48;;;;;;;4.25;1.95;;;19.10;93.30;;;;;;10528064;28;20047;-39
2023/10/29 16:28:50;;;;;;;1.67;0.73;;;18.60;98.20;;;;;;10534380;28;22455;-32
2023/10/29 16:33:52;;;;;;;2.63;0.63;;;19.20;96.60;;;;;;10535436;28;20125;-30
2023/10/29 16:38:56;;;;;;;11.40;1.27;;;17.10;97.80;;;;;;10527681;28;20044;-37
2023/10/29 16:44:00;;;;;;;9.40;1.45;;;13.00;99.90;;;;;;10540149;28;20039;-36
2023/10/29 16:49:02;;;;;;;16.65;1.48;;;13.20;99.90;;;;;;10519830;28;20047;-31
2023/10/29 16:54:06;;;;;;;8.80;1.50;;;13.60;99.90;;;;;;10540533;28;20040;-37
2023/10/29 16:59:08;;;;;;;7.65;1.27;;;13.80;99.90;;;;;;10535437;28;20039;-40
2023/10/29 17:04:10;;;;;;;9.63;1.33;;;13.50;99.90;;;;;;10535321;28;20125;-34
2023/10/29 17:09:13;;;;;;;18.90;2.57;;;14.60;99.90;;;;;;10536823;28;20074;-31
2023/10/29 17:14:15;;;;;;;22.10;2.47;;;13.00;99.90;;;;;;10534087;28;20044;-37
2023/10/29 17:19:17;;;;;;;10.55;1.48;;;12.50;99.90;;;;;;10525236;28;20044;-34
2023/10/29 17:24:20;;;;;;;14.83;1.53;;;14.60;99.90;;;;;;10545866;28;20110;-34
2023/10/29 17:29:23;;;;;;;8.18;1.50;;;14.50;99.90;;;;;;10541502;28;20427;-35
2023/10/29 17:34:24;;;;;;;19.40;2.17;;;15.00;99.90;;;;;;10542192;28;20098;-38
2023/10/29 17:39:27;;;;;;;15.85;2.17;;;14.60;99.90;;;;;;10544640;28;20486;-38
2023/10/29 17:44:30;;;;;;;13.23;1.80;;;15.10;99.90;;;;;;10538648;28;20093;-34
2023/10/29 17:49:32;;;;;;;10.13;1.42;;;14.70;99.90;;;;;;10533316;28;20052;-31
2023/10/29 17:54:35;;;;;;;10.63;1.52;;;14.80;99.90;;;;;;10538110;28;20484;-44
2023/10/29 17:59:37;;;;;;;12.57;2.58;;;13.90;99.90;;;;;;10544962;27;20152;-36
2023/10/29 18:04:39;;;;;;;12.23;2.03;;;14.30;99.90;;;;;;10527852;28;20044;-34
2023/10/29 18:09:42;;;;;;;12.82;1.75;;;14.50;99.90;;;;;;10525416;28;20135;-33
2023/10/29 18:14:44;;;;;;;10.65;1.02;;;14.10;99.90;;;;;;10534499;28;20064;-42
2023/10/29 18:19:46;;;;;;;9.03;1.77;;;13.90;99.90;;;;;;10540586;28;20564;-38
2023/10/29 18:24:49;;;;;;;8.10;1.53;;;14.10;99.90;;;;;;10538165;28;20048;-33
2023/10/29 18:29:52;;;;;;;10.07;1.45;;;14.60;99.90;;;;;;10528690;28;20055;-32
2023/10/29 18:34:53;;;;;;;8.30;1.58;;;14.20;99.90;;;;;;10536782;28;20541;-38
2023/10/29 18:39:58;;;;;;;17.13;2.03;;;13.80;99.90;;;;;;10541484;28;20040;-38
2023/10/29 18:45:02;;;;;;;10.32;1.33;;;14.00;99.90;;;;;;10539207;28;20537;-48
2023/10/29 18:50:04;;;;;;;5.70;0.73;;;13.60;99.90;;;;;;10532364;28;21354;-33
2023/10/29 18:55:08;;;;;;;11.52;1.75;;;14.50;99.90;;;;;;10530354;28;20036;-41
2023/10/29 19:00:11;;;;;;;11.30;1.52;;;13.30;99.90;;;;;;10533665;28;20086;-37
2023/10/29 19:05:14;;;;;;;17.73;2.83;;;13.80;99.90;;;;;;10541938;28;20044;-39
2023/10/29 19:10:17;;;;;;;12.25;5.43;;;13.60;99.90;;;;;;10534729;28;20039;-41
2023/10/29 19:15:19;;;;;;;10.95;2.20;;;15.20;99.90;;;;;;10536666;28;20040;-37
2023/10/29 19:20:22;;;;;;;9.32;1.48;;;15.90;99.90;;;;;;10531781;28;20043;-37
2023/10/29 19:25:25;;;;;;;;;;;14.30;99.90;;;;;;10536592;28;22269;-32
2023/10/29 19:30:26;;;;;;;9.13;1.55;;;15.20;99.90;;;;;;10540568;28;20015;-38
2023/10/29 19:35:31;;;;;;;6.00;1.63;;;14.70;99.90;;;;;;10538783;28;20043;-37
2023/10/29 19:40:35;;;;;;;9.35;2.08;;;15.40;99.90;;;;;;10534065;28;20395;-46
2023/10/29 19:45:36;;;;;;;7.75;1.00;;;15.20;99.90;;;;;;10526346;28;20431;-43
2023/10/29 19:50:39;;;;;;;3.15;1.13;;;15.40;99.90;;;;;;10527610;28;20139;-38
2023/10/29 19:55:42;;;;;;;6.88;1.70;;;15.60;99.90;;;;;;10534151;28;20365;-32
2023/10/29 20:00:43;;;;;;;8.38;1.58;;;14.50;99.90;;;;;;10524748;28;20501;-34
2023/10/29 20:05:46;;;;;;;4.43;1.40;;;15.40;99.90;;;;;;10536771;28;20197;-36
2023/10/29 20:10:49;;;;;;;7.87;1.60;;;15.20;99.90;;;;;;10538653;28;20075;-44
2023/10/29 20:15:52;;;;;;;8.65;1.30;;;14.60;99.90;;;;;;10532375;28;20489;-44
2023/10/29 20:20:54;;;;;;;4.68;1.20;;;15.00;99.90;;;;;;10536974;28;20040;-34
2023/10/29 20:25:57;;;;;;;6.60;1.20;;;13.80;99.90;;;;;;10540155;28;20221;-37
2023/10/29 20:30:58;;;;;;;5.30;1.02;;;14.60;99.90;;;;;;10533904;28;20045;-38
2023/10/29 20:36:00;;;;;;;5.75;0.88;;;15.30;99.90;;;;;;10537702;28;20130;-35
2023/10/29 20:41:08;;;;;;;12.43;1.23;;;15.30;99.90;;;;;;10531977;28;20135;-32
2023/10/29 20:46:10;;;;;;;3.03;1.23;;;13.30;99.90;;;;;;10535380;28;20051;-37
2023/10/29 20:51:12;;;;;;;11.65;0.95;;;14.20;99.90;;;;;;10540061;28;24164;-34
2023/10/29 20:56:15;;;;;;;8.52;1.50;;;14.60;99.90;;;;;;10532854;28;20187;-34
2023/10/29 21:01:17;;;;;;;8.20;1.10;;;14.70;99.90;;;;;;10540680;28;20047;-35
2023/10/29 21:06:19;;;;;;;8.88;0.77;;;14.10;99.90;;;;;;10548197;28;20481;-34
2023/10/29 21:11:24;;;;;;;6.15;1.20;;;14.40;99.90;;;;;;10538240;28;20044;-32
2023/10/29 21:16:26;;;;;;;3.53;0.75;;;15.30;99.90;;;;;;10536490;28;20046;-35
2023/10/29 21:21:27;;;;;;;8.73;1.10;;;15.60;99.90;;;;;;10548818;28;20132;-36
2023/10/29 21:26:31;;;;;;;5.25;0.68;;;15.00;99.90;;;;;;10541311;28;20502;-39
2023/10/29 21:31:32;;;;;;;8.50;0.98;;;14.90;99.90;;;;;;10547815;28;20459;-33
2023/10/29 21:36:36;;;;;;;2.70;0.70;;;14.40;99.90;;;;;;10542681;28;20060;-32
2023/10/29 21:41:39;;;;;;;2.15;0.90;;;14.40;99.90;;;;;;10546403;28;20052;-51
2023/10/29 21:46:43;;;;;;;3.95;0.80;;;16.20;99.90;;;;;;10539903;28;20072;-31
2023/10/29 21:51:45;;;;;;;1.75;0.40;;;14.50;99.90;;;;;;10548740;28;20047;-41
2023/10/29 21:56:48;;;;;;;2.47;0.55;;;14.60;99.90;;;;;;10544178;28;20063;-34
2023/10/29 22:01:52;;;;;;;4.53;0.90;;;15.40;99.90;;;;;;10538764;28;20068;-39
2023/10/29 22:06:54;;;;;;;2.92;0.60;;;15.50;99.90;;;;;;10545423;28;20046;-34
2023/10/29 22:11:57;;;;;;;3.20;0.67;;;14.60;99.90;;;;;;10541918;28;20035;-35
2023/10/29 22:16:59;;;;;;;1.95;0.70;;;14.70;99.90;;;;;;10529131;28;20083;-33
2023/10/29 22:22:01;;;;;;;3.23;0.87;;;14.80;99.90;;;;;;10542845;28;20052;-40
2023/10/29 22:27:05;;;;;;;3.17;0.70;;;14.90;99.90;;;;;;10544144;28;20468;-43
2023/10/29 22:32:07;;;;;;;1.20;0.70;;;14.20;99.90;;;;;;10540157;28;20050;-35
2023/10/29 22:37:09;;;;;;;5.80;0.50;;;14.20;99.90;;;;;;10546443;28;20048;-49
2023/10/29 22:42:12;;;;;;;5.07;1.03;;;14.50;99.90;;;;;;10551932;28;20134;-35
2023/10/29 22:47:14;;;;;;;1.70;0.65;;;14.10;99.90;;;;;;10515386;28;20149;-34
2023/10/29 22:52:16;;;;;;;4.70;0.90;;;15.00;99.90;;;;;;10549107;28;20060;-41
2023/10/29 22:57:19;;;;;;;2.00;0.50;;;14.70;99.90;;;;;;10544885;28;20062;-38
2023/10/29 23:02:24;;;;;;;3.25;0.70;;;14.40;99.90;;;;;;10545854;28;20122;-35
2023/10/29 23:07:26;;;;;;;1.80;1.00;;;14.40;99.90;;;;;;10542527;28;20035;-36
2023/10/29 23:12:29;;;;;;;2.15;0.65;;;14.20;99.90;;;;;;10540191;28;20070;-34
2023/10/29 23:17:31;;;;;;;6.55;1.58;;;13.50;99.90;;;;;;10540771;28;20143;-35
2023/10/29 23:22:33;;;;;;;3.35;1.50;;;14.60;99.90;;;;;;10543505;28;20121;-41
2023/10/29 23:27:36;;;;;;;3.00;0.93;;;13.40;99.90;;;;;;10545111;28;20073;-34
2023/10/29 23:32:38;;;;;;;4.55;1.20;;;14.50;99.90;;;;;;10536329;28;20036;-34
2023/10/29 23:37:40;;;;;;;4.50;0.50;;;14.70;99.90;;;;;;10533563;28;20176;-39
2023/10/29 23:42:43;;;;;;;3.05;0.77;;;15.10;99.90;;;;;;10537838;28;20085;-37
2023/10/29 23:47:47;;;;;;;4.18;0.95;;;15.50;99.90;;;;;;10536152;28;20040;-36
2023/10/29 23:52:49;;;;;;;9.90;1.27;;;15.00;99.90;;;;;;10544042;28;20051;-34
2023/10/29 23:57:52;;;;;;;3.15;1.15;;;14.60;99.90;;;;;;10532132;28;20595;-36
